航空気象通報

ウインドサーファーのための航空気象通報による風予報です。

11/2-11/4の航空気象通報

2016年11月02日 23時02分13秒 | TAF
羽田空港
TAF RJTT 021106Z 0212/0318 35010KT 9999 FEW010 BKN020
BECMG 0303/0306 36020KT
BECMG 0315/0318 34010KT
日本時間2日21時-3日12時:350度から10ノットの風
12-15時:風が変化
15-24時:360度から20ノットの風
4日00-03時:風が変化
03時:340度から10ノットの風


静岡空港
TAF RJNS 021115Z 0212/0318 33004KT 9999 FEW015 BKN025
BECMG 0221/0223 27016KT
TEMPO 0222/0306 27022G32KT
TEMPO 0309/0315 27018G28KT
日本時間2日21時-3日06時:330度から4ノットの風
06-08時:風が変化
08時-4日03時:270度から16ノットの風
但し、3日07-15時の間:ときどき270度から22ノット、突風32ノット
但し、3日18-24時の間:ときどき270度から18ノット、突風28ノット


福岡空港
TAF RJFF 021107Z 0212/0318 15005KT 9999 FEW030 SCT040
BECMG 0212/0214 33008KT
BECMG 0309/0312 15004KT
日本時間2日21時:150度から5ノットの風
21-23時:風が変化
23時-3日18時:330度から8ノットの風
18-21時:風が変化
21時-4日03時:150度から4ノットの風


那覇空港
TAF ROAH 021109Z 0212/0318 02017KT 9999 FEW030 SCT045
TEMPO 0218/0303 03022G32KT
日本時間2日21時-4日03時:020度から17ノットの風
但し、3日03-12時の間:ときどき030度から22ノット、突風32ノット


石垣空港
TAF ROIG 021110Z 0212/0318 03018KT 9999 FEW030 BKN045
TEMPO 0218/0306 03023G33KT
日本時間2日21時-4日03時:030度から18ノットの風
但し、3日03-15時の間:ときどき030度から23ノット、突風33ノット


マウイのカフルイ空港
PHOG 021138Z 0212/0312 05012G18KT P6SM VCSH FEW030 BKN050
FM022000 05016G26KT P6SM FEW035 SCT060
FM030600 05012G18KT P6SM FEW035 SCT060 AMD LTD TO VIS AND WIND TIL 021600
ハワイ時間2日02-10時:050度から12ノット、突風18ノット

10-20時:050度から16ノット、突風26ノット
20時-3日02時:050度から12ノット、突風18ノット


サイパン空港
TAF PGSN 021135Z 0212/0312 18011KT P6SM VCSH SCT018 SCT040 BKN080
TEMPO 0212/0216 4SM SHRA SCT012 BKN025
マリアナ時間2日22時-3日22時:180度から11ノットの風

但し、2日22時-3日02時の間:ときどき
ジャンル:
お天気
コメント   この記事についてブログを書く
この記事をはてなブックマークに追加
« 11/1-11/3の航空気象通報 | トップ | 11/3-11/5の航空気象通報 »
最近の画像もっと見る

コメントを投稿

ブログ作成者から承認されるまでコメントは反映されません。

コメント利用規約に同意の上コメント投稿を行ってください。

数字4桁を入力し、投稿ボタンを押してください。

あわせて読む

トラックバック

この記事のトラックバック  Ping-URL
ブログ作成者から承認されるまでトラックバックは反映されません。
  • 30日以上前の記事に対するトラックバックは受け取らないよう設定されております。
  • 送信元の記事内容が半角英数のみのトラックバックは受け取らないよう設定されております。
  • このブログへのリンクがない記事からのトラックバックは受け取らないよう設定されております。
  • ※ブログ管理者のみ、編集画面で設定の変更が可能です。